Ship Status Report: callsign AMOUK35

sailwx.info

Track history (hours):
 
Tides and Currents Weather Stations Pressure Air Temp Water Temp Dewpoint Dewpoint Depression Visibility Wind Speed Wind Dir Waves Ship Positions

Callsign AMOUK35 (name unknown)

Last reported at 2015-Mar-29 07:00 UTC. Time now 2015-Mar-29 09:28 UTC.
Position N 57°12' W 005°48'.

Barometer 989.3 mb
Air temperature 4.0 ° C
Dewpoint 1.6 ° C

Date/timePositionNaut miles runAvg speedWind from/ knotsBaromVisibWave heightAir tempDewpointWater temp
2015-Mar-29 07:00N 57°12' W 005°48'0 0.0 989.3 4.0 1.6
2015-Mar-29 06:00N 57°12' W 005°48'0 0.0 989.8 3.3 1.4
2015-Mar-29 05:00N 57°12' W 005°48'0 0.0 990.2 4.6 2.5
2015-Mar-29 04:00N 57°12' W 005°48'0 0.0 991.1 4.5 2.6
2015-Mar-29 03:00N 57°12' W 005°48'0 0.0 991.7 4.7 2.6
2015-Mar-29 02:00N 57°12' W 005°48'0 0.0 992.4 4.8 2.6
2015-Mar-29 01:00N 57°12' W 005°48'0 0.0 992.5 4.7 2.8
2015-Mar-28 23:00N 57°12' W 005°48'0 0.0 992.6 4.6 2.7
2015-Mar-28 22:00N 57°12' W 005°48'0 0.0 992.3 4.9 3.0
2015-Mar-28 21:00N 57°12' W 005°48'0 0.0 992.6 5.2 3.2
2015-Mar-28 20:00N 57°12' W 005°48'0 0.0 993.2 5.2 2.4
2015-Mar-28 19:00N 57°12' W 005°48'0 0.0 993.5 5.7 3.3
2015-Mar-28 18:00N 57°12' W 005°48'0 0.0 993.8 6.3 2.8
2015-Mar-28 17:00N 57°12' W 005°48'0 0.0 993.5 6.9 3.8
2015-Mar-28 16:00N 57°12' W 005°48'0 0.0 993.0 6.8 4.0
2015-Mar-28 15:00N 57°12' W 005°48'0 0.0 992.9 7.0 4.2
2015-Mar-28 14:00N 57°12' W 005°48'0 0.0 993.1 7.4 3.8
2015-Mar-28 13:00N 57°12' W 005°48'0 0.0 990.7 7.7 3.9
2015-Mar-28 12:00N 57°12' W 005°48'0 0.0 988.0 8.3 5.0
2015-Mar-28 11:00N 57°12' W 005°48'0 0.0 986.1 9.0 8.1
2015-Mar-28 10:00N 57°12' W 005°48'3 3.3 985.8 8.9 7.9
2015-Mar-28 09:00N 57°12' W 005°42'6 6.0 986.0 9.6 8.4
2015-Mar-28 08:00N 57°18' W 005°42'0 0.0 988.4 10.3 7.6
2015-Mar-28 07:00N 57°18' W 005°42'0 0.0 989.5 10.1 6.5
2015-Mar-28 06:00N 57°18' W 005°42'0 0.0 991.4 8.1 4.6
2015-Mar-28 05:00N 57°18' W 005°42'0 0.0 994.0 6.3 2.5
2015-Mar-28 04:00N 57°18' W 005°42'0 0.0 999.0 5.8 2.5
2015-Mar-28 03:00N 57°18' W 005°42'0 0.0 1002.7 7.3 2.7
2015-Mar-28 02:00N 57°18' W 005°42'0 0.0 1005.1 8.3 2.6
2015-Mar-28 01:00N 57°18' W 005°42'0 0.0 1007.4 8.5 2.7
2015-Mar-28 00:00N 57°18' W 005°42'0 0.0 1009.1 8.0 3.4
2015-Mar-27 23:00N 57°18' W 005°42'0 0.0 1010.5 7.6 4.6
2015-Mar-27 22:00N 57°18' W 005°42'0 0.0 1011.8 7.5 4.8
2015-Mar-27 21:00N 57°18' W 005°42'0 0.0 1012.5 7.6 4.9
2015-Mar-27 20:00N 57°18' W 005°42'0 0.0 1013.1 7.3 4.9
2015-Mar-27 19:00N 57°18' W 005°42'0 0.0 1013.2 7.4 5.1
2015-Mar-27 18:00N 57°18' W 005°42'0 0.0 1013.2 7.4 4.7
2015-Mar-27 17:00N 57°18' W 005°42'0 0.0 1012.9 8.5 4.8
2015-Mar-27 16:00N 57°18' W 005°42'0 0.0 1013.1 8.0 3.5
2015-Mar-27 15:00N 57°18' W 005°42'0 0.0 1013.1 8.9 2.6
2015-Mar-27 14:00N 57°18' W 005°42'6 6.0 1013.0 8.9 3.3
2015-Mar-27 13:00N 57°12' W 005°42'1413.7 1013.2 7.5 3.9
2015-Mar-27 12:00N 57°00' W 005°54'9 8.9 1013.5 6.9 3.3
2015-Mar-27 11:00N 56°54' W 006°06'1212.4 1013.7 6.8 3.3
2015-Mar-27 10:00N 56°42' W 006°12'9 8.9 1014.2 6.5 3.1
2015-Mar-27 09:00N 56°36' W 006°00'7 6.9 1014.5 7.0 3.3
2015-Mar-27 08:00N 56°30' W 005°54'0 0.0 1015.0 4.6 2.5
2015-Mar-27 07:00N 56°30' W 005°54'0 0.0 1014.6 5.0 2.5
2015-Mar-27 06:00N 56°30' W 005°54'0 0.0 1014.1 4.5 2.4
2015-Mar-27 05:00N 56°30' W 005°54'0 0.0 1014.2 3.2 1.0
2015-Mar-27 04:00N 56°30' W 005°54'0 0.0 1014.1 4.1 1.2
2015-Mar-27 03:00N 56°30' W 005°54'0 0.0 1013.9 3.7 1.2
2015-Mar-27 02:00N 56°30' W 005°54'0 0.0 1013.8 3.4 0.8
2015-Mar-27 01:00N 56°30' W 005°54'0 0.0 1013.3 3.7 1.0
2015-Mar-27 00:00N 56°30' W 005°54'0 0.0 1012.9 4.8 1.1
2015-Mar-26 23:00N 56°30' W 005°54'0 0.0 1012.6 4.2 0.4
2015-Mar-26 20:00N 56°30' W 005°54'15 3.6 1010.2 6.3 1.7
2015-Mar-26 16:00N 56°24' W 005°30'0 0.0 1004.2 8.0 2.0
2015-Mar-26 12:00N 56°24' W 005°30'0 0.0 998.5 7.7 3.3
2015-Mar-26 10:00N 56°24' W 005°30'0 0.0 995.9 6.4 4.4
2015-Mar-26 05:00N 56°24' W 005°30'0 0.0 992.2 2.9 0.6
2015-Mar-26 04:00N 56°24' W 005°30'0 0.0 993.0 2.7 0.4
2015-Mar-25 21:00N 56°24' W 005°30'0 0.0 1001.9 6.1-0.8
2015-Mar-25 20:00N 56°24' W 005°30'0 0.0 1003.2 6.5 0.2
2015-Mar-25 18:00N 56°24' W 005°30'0 0.0 1005.3 7.5-0.9
2015-Mar-25 17:00N 56°24' W 005°30'0 0.0 1006.7 7.8-0.6
2015-Mar-25 16:00N 56°24' W 005°30'0 0.0 1008.0 8.4-1.4
2015-Mar-25 15:00N 56°24' W 005°30'0 0.0 1008.7 8.5-1.1
2015-Mar-25 14:00N 56°24' W 005°30'0 0.0 1009.2 8.8-1.3
2015-Mar-25 13:00N 56°24' W 005°30'0 0.0 1010.2 8.8-1.0
2015-Mar-25 12:00N 56°24' W 005°30'0 0.0 1011.1 7.9-1.0
2015-Mar-25 11:00N 56°24' W 005°30'0 0.0 1012.2 8.3-0.7
2015-Mar-25 10:00N 56°24' W 005°30'0 0.0 1012.7 6.7-0.5
2015-Mar-25 09:00N 56°24' W 005°30'0 0.0 1013.0 4.9-0.5
2015-Mar-25 08:00N 56°24' W 005°30'0 0.0 1013.4 2.1-1.3
2015-Mar-25 07:00N 56°24' W 005°30'0 0.0 1013.4 1.3-1.4
2015-Mar-25 06:00N 56°24' W 005°30'0 0.0 1013.6 -0.1-2.2
2015-Mar-25 05:00N 56°24' W 005°30'0 0.0 1013.4 0.5-1.8
2015-Mar-25 04:00N 56°24' W 005°30'0 0.0 1013.8 1.1-1.4
2015-Mar-25 03:00N 56°24' W 005°30'0 0.0 1014.1 0.7-1.8
2015-Mar-25 00:00N 56°24' W 005°30'0 0.0 1013.6 5.6 0.6
2015-Mar-24 23:00N 56°24' W 005°30'0 0.0 1013.2 5.5-0.3
2015-Mar-24 22:00N 56°24' W 005°30'0 0.0 1013.0 5.7-0.0
2015-Mar-24 18:00N 56°24' W 005°30'3 0.8 1010.5 6.6 1.0
2015-Mar-24 14:00N 56°24' W 005°36'0 0.0 1009.6 7.3 1.9
2015-Mar-24 13:00N 56°24' W 005°36'0 0.0 1009.3 6.6 1.2
2015-Mar-24 11:00N 56°24' W 005°36'3 1.1 1008.8 4.9 1.8
2015-Mar-24 08:00N 56°24' W 005°30'0 0.0 1007.6 3.9 1.9
2015-Mar-24 00:00N 56°24' W 005°30'0 0.0 1010.0 4.5 1.9
2015-Mar-23 16:00N 56°24' W 005°30'0 0.0 1011.7 7.6 3.1
2015-Mar-23 15:00N 56°24' W 005°30'0 0.0 1012.0 7.8 1.8
2015-Mar-23 11:00N 56°24' W 005°30'0 0.0 1012.5 7.6 2.3
2015-Mar-23 03:00N 56°24' W 005°30'29 2.4 1008.3 8.0 6.5
2015-Mar-22 15:00N 56°42' W 006°12'2110.3 1017.4 7.6 4.5
2015-Mar-22 13:00N 57°00' W 005°54'1413.7 1020.0 8.0 5.0
2015-Mar-22 12:00N 57°12' W 005°42'6 1.0 1020.6 8.1 4.4
2015-Mar-22 06:00N 57°18' W 005°42'0 0.0 1024.0 7.3 4.3
2015-Mar-22 01:00N 57°18' W 005°42'0 0.0 1027.5 6.9 4.2
2015-Mar-21 21:00N 57°18' W 005°42'0 0.0 1028.6 7.2 3.8
2015-Mar-21 20:00N 57°18' W 005°42'0 0.0 1029.1 7.0 3.7
2015-Mar-21 18:00N 57°18' W 005°42'0 0.0 1029.0 6.9 3.8
2015-Mar-21 16:00N 57°18' W 005°42'19 9.6 1029.5 9.7 3.4
2015-Mar-21 14:00N 57°00' W 005°54'16 7.8 1030.5 9.7 3.4
2015-Mar-21 12:00N 56°48' W 006°12'7 6.8 1030.7 7.1 2.8
2015-Mar-21 11:00N 56°42' W 006°06'27 8.9 1031.1 7.0 3.3
2015-Mar-21 08:00N 56°24' W 005°30'0 0.0 1030.8 4.6 1.9
2015-Mar-21 05:00N 56°24' W 005°30'0 0.0 1029.0 5.7 3.1
2015-Mar-21 01:00N 56°24' W 005°30'0 0.0 1028.0 7.2 4.3
2015-Mar-20 16:00N 56°24' W 005°30'0 0.0 1025.4 8.2 5.0
2015-Mar-20 15:00N 56°24' W 005°30'6 2.0 1025.2 8.3 5.1
2015-Mar-20 12:00N 56°30' W 005°30'0 0.0 1026.9 8.2 4.8
2015-Mar-20 11:00N 56°30' W 005°30'0 0.0 1027.3 8.8 5.0
2015-Mar-20 10:00N 56°30' W 005°30'0 0.0 1027.5 8.1 5.7
2015-Mar-20 09:00N 56°30' W 005°30'0 0.0 1027.4 8.2 5.2
2015-Mar-20 08:00N 56°30' W 005°30'0 0.0 1026.9 7.7 6.7
2015-Mar-20 07:00N 56°30' W 005°30'0 0.0 1027.2 8.0 7.1
2015-Mar-20 06:00N 56°30' W 005°30'0 0.0 1027.2 7.6 6.6
2015-Mar-20 05:00N 56°30' W 005°30'0 0.0 1027.6 7.7 6.6
2015-Mar-20 02:00N 56°30' W 005°30'0 0.0 1028.8 8.3 7.5
2015-Mar-19 23:00N 56°30' W 005°30'0 0.0 1030.0 7.5 6.4
2015-Mar-19 22:00N 56°30' W 005°30'0 0.0 1030.8 7.6 6.2
2015-Mar-19 21:00N 56°30' W 005°30'0 0.0 1031.3 7.6 5.6
2015-Mar-19 18:00N 56°30' W 005°30'0 0.0 1032.1 7.3 5.0
2015-Mar-19 14:00N 56°30' W 005°30'0 0.0 1034.1 8.5 3.5
2015-Mar-19 12:00N 56°30' W 005°30'0 0.0 1035.4 7.4 2.5
2015-Mar-19 11:00N 56°30' W 005°30'0 0.0 1035.8 6.1 2.2
2015-Mar-19 08:00N 56°30' W 005°30'   1035.6 4.6 2.7
Track history (hours):
 
Tides and Currents Weather Stations Pressure Air Temp Water Temp Dewpoint Dewpoint Depression Visibility Wind Speed Wind Dir Waves Ship Positions

Callsign AMOUK35 (name unknown)

Last reported at 2015-Mar-29 07:00 UTC. Time now 2015-Mar-29 09:28 UTC.
Position N 57°12' W 005°48'.

Barometer 989.3 mb
Air temperature 4.0 ° C
Dewpoint 1.6 ° C

Date/timePositionNaut miles runAvg speedWind from/ knotsBaromVisibWave heightAir tempDewpointWater temp
2015-Mar-29 07:00N 57°12' W 005°48'0 0.0 989.3 4.0 1.6
2015-Mar-29 06:00N 57°12' W 005°48'0 0.0 989.8 3.3 1.4
2015-Mar-29 05:00N 57°12' W 005°48'0 0.0 990.2 4.6 2.5
2015-Mar-29 04:00N 57°12' W 005°48'0 0.0 991.1 4.5 2.6
2015-Mar-29 03:00N 57°12' W 005°48'0 0.0 991.7 4.7 2.6
2015-Mar-29 02:00N 57°12' W 005°48'0 0.0 992.4 4.8 2.6
2015-Mar-29 01:00N 57°12' W 005°48'0 0.0 992.5 4.7 2.8
2015-Mar-28 23:00N 57°12' W 005°48'0 0.0 992.6 4.6 2.7
2015-Mar-28 22:00N 57°12' W 005°48'0 0.0 992.3 4.9 3.0
2015-Mar-28 21:00N 57°12' W 005°48'0 0.0 992.6 5.2 3.2
2015-Mar-28 20:00N 57°12' W 005°48'0 0.0 993.2 5.2 2.4
2015-Mar-28 19:00N 57°12' W 005°48'0 0.0 993.5 5.7 3.3
2015-Mar-28 18:00N 57°12' W 005°48'0 0.0 993.8 6.3 2.8
2015-Mar-28 17:00N 57°12' W 005°48'0 0.0 993.5 6.9 3.8
2015-Mar-28 16:00N 57°12' W 005°48'0 0.0 993.0 6.8 4.0
2015-Mar-28 15:00N 57°12' W 005°48'0 0.0 992.9 7.0 4.2
2015-Mar-28 14:00N 57°12' W 005°48'0 0.0 993.1 7.4 3.8
2015-Mar-28 13:00N 57°12' W 005°48'0 0.0 990.7 7.7 3.9
2015-Mar-28 12:00N 57°12' W 005°48'0 0.0 988.0 8.3 5.0
2015-Mar-28 11:00N 57°12' W 005°48'0 0.0 986.1 9.0 8.1
2015-Mar-28 10:00N 57°12' W 005°48'3 3.3 985.8 8.9 7.9
2015-Mar-28 09:00N 57°12' W 005°42'6 6.0 986.0 9.6 8.4
2015-Mar-28 08:00N 57°18' W 005°42'0 0.0 988.4 10.3 7.6
2015-Mar-28 07:00N 57°18' W 005°42'0 0.0 989.5 10.1 6.5
2015-Mar-28 06:00N 57°18' W 005°42'0 0.0 991.4 8.1 4.6
2015-Mar-28 05:00N 57°18' W 005°42'0 0.0 994.0 6.3 2.5
2015-Mar-28 04:00N 57°18' W 005°42'0 0.0 999.0 5.8 2.5
2015-Mar-28 03:00N 57°18' W 005°42'0 0.0 1002.7 7.3 2.7
2015-Mar-28 02:00N 57°18' W 005°42'0 0.0 1005.1 8.3 2.6
2015-Mar-28 01:00N 57°18' W 005°42'0 0.0 1007.4 8.5 2.7
2015-Mar-28 00:00N 57°18' W 005°42'0 0.0 1009.1 8.0 3.4
2015-Mar-27 23:00N 57°18' W 005°42'0 0.0 1010.5 7.6 4.6
2015-Mar-27 22:00N 57°18' W 005°42'0 0.0 1011.8 7.5 4.8
2015-Mar-27 21:00N 57°18' W 005°42'0 0.0 1012.5 7.6 4.9
2015-Mar-27 20:00N 57°18' W 005°42'0 0.0 1013.1 7.3 4.9
2015-Mar-27 19:00N 57°18' W 005°42'0 0.0 1013.2 7.4 5.1
2015-Mar-27 18:00N 57°18' W 005°42'0 0.0 1013.2 7.4 4.7
2015-Mar-27 17:00N 57°18' W 005°42'0 0.0 1012.9 8.5 4.8
2015-Mar-27 16:00N 57°18' W 005°42'0 0.0 1013.1 8.0 3.5
2015-Mar-27 15:00N 57°18' W 005°42'0 0.0 1013.1 8.9 2.6
2015-Mar-27 14:00N 57°18' W 005°42'6 6.0 1013.0 8.9 3.3
2015-Mar-27 13:00N 57°12' W 005°42'1413.7 1013.2 7.5 3.9
2015-Mar-27 12:00N 57°00' W 005°54'9 8.9 1013.5 6.9 3.3
2015-Mar-27 11:00N 56°54' W 006°06'1212.4 1013.7 6.8 3.3
2015-Mar-27 10:00N 56°42' W 006°12'9 8.9 1014.2 6.5 3.1
2015-Mar-27 09:00N 56°36' W 006°00'7 6.9 1014.5 7.0 3.3
2015-Mar-27 08:00N 56°30' W 005°54'0 0.0 1015.0 4.6 2.5
2015-Mar-27 07:00N 56°30' W 005°54'0 0.0 1014.6 5.0 2.5
2015-Mar-27 06:00N 56°30' W 005°54'0 0.0 1014.1 4.5 2.4
2015-Mar-27 05:00N 56°30' W 005°54'0 0.0 1014.2 3.2 1.0
2015-Mar-27 04:00N 56°30' W 005°54'0 0.0 1014.1 4.1 1.2
2015-Mar-27 03:00N 56°30' W 005°54'0 0.0 1013.9 3.7 1.2
2015-Mar-27 02:00N 56°30' W 005°54'0 0.0 1013.8 3.4 0.8
2015-Mar-27 01:00N 56°30' W 005°54'0 0.0 1013.3 3.7 1.0
2015-Mar-27 00:00N 56°30' W 005°54'0 0.0 1012.9 4.8 1.1
2015-Mar-26 23:00N 56°30' W 005°54'0 0.0 1012.6 4.2 0.4
2015-Mar-26 20:00N 56°30' W 005°54'15 3.6 1010.2 6.3 1.7
2015-Mar-26 16:00N 56°24' W 005°30'0 0.0 1004.2 8.0 2.0
2015-Mar-26 12:00N 56°24' W 005°30'0 0.0 998.5 7.7 3.3
2015-Mar-26 10:00N 56°24' W 005°30'0 0.0 995.9 6.4 4.4
2015-Mar-26 05:00N 56°24' W 005°30'0 0.0 992.2 2.9 0.6
2015-Mar-26 04:00N 56°24' W 005°30'0 0.0 993.0 2.7 0.4
2015-Mar-25 21:00N 56°24' W 005°30'0 0.0 1001.9 6.1-0.8
2015-Mar-25 20:00N 56°24' W 005°30'0 0.0 1003.2 6.5 0.2
2015-Mar-25 18:00N 56°24' W 005°30'0 0.0 1005.3 7.5-0.9
2015-Mar-25 17:00N 56°24' W 005°30'0 0.0 1006.7 7.8-0.6
2015-Mar-25 16:00N 56°24' W 005°30'0 0.0 1008.0 8.4-1.4
2015-Mar-25 15:00N 56°24' W 005°30'0 0.0 1008.7 8.5-1.1
2015-Mar-25 14:00N 56°24' W 005°30'0 0.0 1009.2 8.8-1.3
2015-Mar-25 13:00N 56°24' W 005°30'0 0.0 1010.2 8.8-1.0
2015-Mar-25 12:00N 56°24' W 005°30'0 0.0 1011.1 7.9-1.0
2015-Mar-25 11:00N 56°24' W 005°30'0 0.0 1012.2 8.3-0.7
2015-Mar-25 10:00N 56°24' W 005°30'0 0.0 1012.7 6.7-0.5
2015-Mar-25 09:00N 56°24' W 005°30'0 0.0 1013.0 4.9-0.5
2015-Mar-25 08:00N 56°24' W 005°30'0 0.0 1013.4 2.1-1.3
2015-Mar-25 07:00N 56°24' W 005°30'0 0.0 1013.4 1.3-1.4
2015-Mar-25 06:00N 56°24' W 005°30'0 0.0 1013.6 -0.1-2.2
2015-Mar-25 05:00N 56°24' W 005°30'0 0.0 1013.4 0.5-1.8
2015-Mar-25 04:00N 56°24' W 005°30'0 0.0 1013.8 1.1-1.4
2015-Mar-25 03:00N 56°24' W 005°30'0 0.0 1014.1 0.7-1.8
2015-Mar-25 00:00N 56°24' W 005°30'0 0.0 1013.6 5.6 0.6
2015-Mar-24 23:00N 56°24' W 005°30'0 0.0 1013.2 5.5-0.3
2015-Mar-24 22:00N 56°24' W 005°30'0 0.0 1013.0 5.7-0.0
2015-Mar-24 18:00N 56°24' W 005°30'3 0.8 1010.5 6.6 1.0
2015-Mar-24 14:00N 56°24' W 005°36'0 0.0 1009.6 7.3 1.9
2015-Mar-24 13:00N 56°24' W 005°36'0 0.0 1009.3 6.6 1.2
2015-Mar-24 11:00N 56°24' W 005°36'3 1.1 1008.8 4.9 1.8
2015-Mar-24 08:00N 56°24' W 005°30'0 0.0 1007.6 3.9 1.9
2015-Mar-24 00:00N 56°24' W 005°30'0 0.0 1010.0 4.5 1.9
2015-Mar-23 16:00N 56°24' W 005°30'0 0.0 1011.7 7.6 3.1
2015-Mar-23 15:00N 56°24' W 005°30'0 0.0 1012.0 7.8 1.8
2015-Mar-23 11:00N 56°24' W 005°30'0 0.0 1012.5 7.6 2.3
2015-Mar-23 03:00N 56°24' W 005°30'29 2.4 1008.3 8.0 6.5
2015-Mar-22 15:00N 56°42' W 006°12'2110.3 1017.4 7.6 4.5
2015-Mar-22 13:00N 57°00' W 005°54'1413.7 1020.0 8.0 5.0
2015-Mar-22 12:00N 57°12' W 005°42'6 1.0 1020.6 8.1 4.4
2015-Mar-22 06:00N 57°18' W 005°42'0 0.0 1024.0 7.3 4.3
2015-Mar-22 01:00N 57°18' W 005°42'0 0.0 1027.5 6.9 4.2
2015-Mar-21 21:00N 57°18' W 005°42'0 0.0 1028.6 7.2 3.8
2015-Mar-21 20:00N 57°18' W 005°42'0 0.0 1029.1 7.0 3.7
2015-Mar-21 18:00N 57°18' W 005°42'0 0.0 1029.0 6.9 3.8
2015-Mar-21 16:00N 57°18' W 005°42'19 9.6 1029.5 9.7 3.4
2015-Mar-21 14:00N 57°00' W 005°54'16 7.8 1030.5 9.7 3.4
2015-Mar-21 12:00N 56°48' W 006°12'7 6.8 1030.7 7.1 2.8
2015-Mar-21 11:00N 56°42' W 006°06'27 8.9 1031.1 7.0 3.3
2015-Mar-21 08:00N 56°24' W 005°30'0 0.0 1030.8 4.6 1.9
2015-Mar-21 05:00N 56°24' W 005°30'0 0.0 1029.0 5.7 3.1
2015-Mar-21 01:00N 56°24' W 005°30'0 0.0 1028.0 7.2 4.3
2015-Mar-20 16:00N 56°24' W 005°30'0 0.0 1025.4 8.2 5.0
2015-Mar-20 15:00N 56°24' W 005°30'6 2.0 1025.2 8.3 5.1
2015-Mar-20 12:00N 56°30' W 005°30'0 0.0 1026.9 8.2 4.8
2015-Mar-20 11:00N 56°30' W 005°30'0 0.0 1027.3 8.8 5.0
2015-Mar-20 10:00N 56°30' W 005°30'0 0.0 1027.5 8.1 5.7
2015-Mar-20 09:00N 56°30' W 005°30'0 0.0 1027.4 8.2 5.2
2015-Mar-20 08:00N 56°30' W 005°30'0 0.0 1026.9 7.7 6.7
2015-Mar-20 07:00N 56°30' W 005°30'0 0.0 1027.2 8.0 7.1
2015-Mar-20 06:00N 56°30' W 005°30'0 0.0 1027.2 7.6 6.6
2015-Mar-20 05:00N 56°30' W 005°30'0 0.0 1027.6 7.7 6.6
2015-Mar-20 02:00N 56°30' W 005°30'0 0.0 1028.8 8.3 7.5
2015-Mar-19 23:00N 56°30' W 005°30'0 0.0 1030.0 7.5 6.4
2015-Mar-19 22:00N 56°30' W 005°30'0 0.0 1030.8 7.6 6.2
2015-Mar-19 21:00N 56°30' W 005°30'0 0.0 1031.3 7.6 5.6
2015-Mar-19 18:00N 56°30' W 005°30'0 0.0 1032.1 7.3 5.0
2015-Mar-19 14:00N 56°30' W 005°30'0 0.0 1034.1 8.5 3.5
2015-Mar-19 12:00N 56°30' W 005°30'0 0.0 1035.4 7.4 2.5
2015-Mar-19 11:00N 56°30' W 005°30'0 0.0 1035.8 6.1 2.2
2015-Mar-19 08:00N 56°30' W 005°30'   1035.6 4.6 2.7

Dump ship's entire track history